Terminal Aerodrome Forecast
Issued by NWS

Home | Current Version | Previous Version | Text Only | Print | Product List | Glossary On
Versions: 1 2 3 4 5 6 7 8 9 10 11 12 13 14 15 16
000
FTUS43 KMPX 101725
TAFRWF
TAF
KRWF 101725Z 1018/1118 12006KT 5SM -SN SCT012 OVC030
     FM101900 12008KT 1 1/2SM -SN SCT007 OVC017
      TEMPO 1023/1102 3/4SM -SN OVC007
     FM110200 11010KT 1SM -SN BKN007 OVC012
     FM111100 10007KT 2SM -SN SCT007 OVC015=

USA.gov is the U.S. government's official web portal to all federal, state and local government web resources and services.